createdAt,value
2022-09-06T00:00:58.243Z,25.08
2022-09-06T00:03:27.534Z,24.92
2022-09-06T00:05:54.524Z,25.15
2022-09-06T00:08:21.428Z,25.13
2022-09-06T00:10:48.212Z,25.65
2022-09-06T00:13:15.001Z,25.23
2022-09-06T00:15:41.864Z,25.25
2022-09-06T00:18:08.644Z,25.08
2022-09-06T00:20:41.258Z,25.63
2022-09-06T00:23:08.359Z,24.52
2022-09-06T00:25:35.327Z,25.83
2022-09-06T00:28:04.950Z,25.27
2022-09-06T00:30:32.825Z,25.58
2022-09-06T00:33:00.271Z,25.70
2022-09-06T00:35:27.949Z,25.75
2022-09-06T00:38:01.875Z,25.48
2022-09-06T00:40:31.854Z,25.83
2022-09-06T00:42:58.721Z,24.95
2022-09-06T00:45:27.882Z,25.23
2022-09-06T00:47:55.240Z,25.58
2022-09-06T00:50:22.362Z,25.33
2022-09-06T00:52:51.864Z,25.10
2022-09-06T00:55:19.780Z,25.35
2022-09-06T00:57:50.864Z,25.17
2022-09-06T01:00:19.117Z,25.13
2022-09-06T01:02:47.173Z,25.83
2022-09-06T01:05:14.739Z,25.83
2022-09-06T01:07:51.712Z,25.65
2022-09-06T01:10:32.299Z,25.80
2022-09-06T01:12:58.934Z,24.92
2022-09-06T01:15:49.322Z,25.10
2022-09-06T01:18:36.365Z,25.20
2022-09-06T01:21:27.513Z,24.75
2022-09-06T01:24:31.135Z,24.98
2022-09-06T01:27:23.845Z,24.75
2022-09-06T01:29:53.063Z,24.55
2022-09-06T01:32:41.603Z,25.67
2022-09-06T01:35:28.721Z,24.70
2022-09-06T01:37:56.741Z,24.35
2022-09-06T01:40:23.483Z,24.27
2022-09-06T01:42:53.160Z,24.17
2022-09-06T01:45:32.104Z,24.77
2022-09-06T01:48:24.485Z,24.83
2022-09-06T01:51:10.008Z,24.90
2022-09-06T01:56:24.917Z,25.13
2022-09-06T01:59:16.474Z,25.70
2022-09-06T02:02:20.623Z,25.52
2022-09-06T02:04:52.015Z,25.17
2022-09-06T02:07:18.690Z,25.73
2022-09-06T02:09:49.766Z,26.00
2022-09-06T02:12:19.126Z,25.58
2022-09-06T02:14:56.707Z,25.05
2022-09-06T02:17:30.410Z,25.55
2022-09-06T02:20:05.861Z,25.10
2022-09-06T02:22:38.741Z,25.63
2022-09-06T02:25:09.069Z,25.20
2022-09-06T02:27:36.864Z,25.40
2022-09-06T02:30:05.640Z,25.98
2022-09-06T02:32:38.071Z,26.15
2022-09-06T02:35:16.197Z,25.73
2022-09-06T02:37:44.248Z,25.25
2022-09-06T02:40:12.086Z,25.30
2022-09-06T02:42:40.219Z,25.60
2022-09-06T02:45:07.699Z,25.60
2022-09-06T02:47:34.389Z,25.50
2022-09-06T02:50:01.061Z,25.55
2022-09-06T02:52:27.733Z,25.63
2022-09-06T02:54:55.045Z,25.52
2022-09-06T02:57:21.828Z,25.73
2022-09-06T02:59:48.497Z,25.77
2022-09-06T03:02:15.724Z,27.15
2022-09-06T03:04:42.495Z,26.15
2022-09-06T03:07:09.175Z,25.45
2022-09-06T03:09:35.837Z,26.33
2022-09-06T03:12:02.690Z,25.63
2022-09-06T03:14:29.346Z,25.65
2022-09-06T03:16:56.991Z,26.25
2022-09-06T03:19:23.744Z,26.33
2022-09-06T03:21:50.590Z,25.85
2022-09-06T03:24:17.305Z,25.83
2022-09-06T03:26:44.324Z,26.50
2022-09-06T03:29:11.019Z,26.50
2022-09-06T03:31:37.682Z,25.60
2022-09-06T03:34:07.020Z,27.25
2022-09-06T03:36:37.058Z,26.83
2022-09-06T03:39:03.806Z,26.17
2022-09-06T03:41:30.509Z,26.48
2022-09-06T03:43:57.207Z,26.33
2022-09-06T03:46:23.987Z,26.42
2022-09-06T03:48:50.670Z,26.40
2022-09-06T03:51:17.339Z,26.42
2022-09-06T03:53:44.207Z,26.73
2022-09-06T03:56:10.946Z,26.98
2022-09-06T03:58:37.625Z,28.00
2022-09-06T04:01:10.829Z,26.55
2022-09-06T04:03:38.436Z,27.05
2022-09-06T04:06:06.283Z,25.88
2022-09-06T04:08:33.523Z,27.42
2022-09-06T04:11:00.280Z,27.58
2022-09-06T04:13:28.340Z,26.92
2022-09-06T04:15:55.118Z,26.88
2022-09-06T04:18:22.552Z,27.02
2022-09-06T04:20:51.661Z,27.17
2022-09-06T04:23:19.466Z,27.88
2022-09-06T04:25:51.123Z,27.40
2022-09-06T04:28:18.793Z,27.23
2022-09-06T04:30:57.425Z,27.77
2022-09-06T04:33:26.910Z,27.05
2022-09-06T04:35:57.164Z,27.10
2022-09-06T04:38:25.254Z,28.23
2022-09-06T04:40:52.497Z,27.80
2022-09-06T04:43:19.254Z,27.15
2022-09-06T04:45:45.949Z,27.02
2022-09-06T04:48:12.767Z,28.13
2022-09-06T04:50:40.208Z,27.70
2022-09-06T04:53:07.400Z,28.10
2022-09-06T04:55:34.516Z,27.40
2022-09-06T04:58:01.704Z,27.35
2022-09-06T05:00:29.761Z,27.75
2022-09-06T05:02:56.461Z,29.30
2022-09-06T05:05:23.940Z,28.02
2022-09-06T05:07:55.233Z,27.23
2022-09-06T05:10:23.334Z,28.17
2022-09-06T05:12:51.232Z,27.90
2022-09-06T05:15:19.169Z,28.17
2022-09-06T05:17:45.950Z,28.20
2022-09-06T05:20:13.069Z,27.40
2022-09-06T05:22:40.487Z,28.60
2022-09-06T05:25:08.404Z,29.55
2022-09-06T05:27:35.801Z,27.92
2022-09-06T05:30:04.002Z,29.52
2022-09-06T05:32:30.880Z,28.83
2022-09-06T05:34:57.577Z,30.17
2022-09-06T05:37:24.295Z,30.50
2022-09-06T05:39:51.670Z,29.77
2022-09-06T05:42:19.409Z,31.23
2022-09-06T05:44:46.492Z,29.75
2022-09-06T05:47:13.498Z,30.02
2022-09-06T05:49:40.324Z,29.90
2022-09-06T05:52:07.084Z,29.35
2022-09-06T05:54:33.779Z,28.63
2022-09-06T05:57:00.551Z,28.58
2022-09-06T05:59:27.333Z,27.63
2022-09-06T06:01:54.704Z,28.67
2022-09-06T06:04:22.310Z,28.85
2022-09-06T06:06:49.376Z,28.58
2022-09-06T06:09:16.767Z,27.85
2022-09-06T06:11:43.888Z,29.20
2022-09-06T06:14:11.039Z,28.50
2022-09-06T06:16:38.134Z,27.92
2022-09-06T06:19:04.951Z,28.80
2022-09-06T06:21:33.595Z,28.95
2022-09-06T06:24:02.887Z,30.17
2022-09-06T06:26:33.200Z,29.65
2022-09-06T06:29:01.911Z,29.73
2022-09-06T06:31:33.252Z,29.90
2022-09-06T06:34:03.493Z,29.08
2022-09-06T06:36:33.590Z,29.80
2022-09-06T06:39:01.499Z,29.25
2022-09-06T06:41:30.784Z,28.63
2022-09-06T06:44:03.305Z,29.50
2022-09-06T06:46:32.482Z,29.23
2022-09-06T06:49:00.119Z,29.42
2022-09-06T06:51:29.548Z,29.55
2022-09-06T06:53:59.909Z,28.55
2022-09-06T06:56:29.403Z,29.20
2022-09-06T06:58:58.183Z,28.92
2022-09-06T07:01:26.611Z,29.40
2022-09-06T07:03:54.438Z,28.90
2022-09-06T07:09:09.113Z,29.80
2022-09-06T07:11:35.858Z,29.38
2022-09-06T07:14:02.515Z,28.38
2022-09-06T07:22:06.416Z,28.40
2022-09-06T07:24:33.705Z,28.95
2022-09-06T07:29:47.040Z,28.88
2022-09-06T07:32:13.730Z,28.17
2022-09-06T07:34:40.411Z,29.08
2022-09-06T07:37:07.542Z,29.17
2022-09-06T07:39:36.029Z,29.00
2022-09-06T07:42:03.758Z,29.05
2022-09-06T07:44:30.492Z,28.58
2022-09-06T07:55:17.276Z,28.63
2022-09-06T07:57:44.017Z,28.30
2022-09-06T08:00:11.999Z,29.60
2022-09-06T08:02:40.723Z,29.42
2022-09-06T08:10:41.386Z,29.67
2022-09-06T08:13:08.144Z,29.48
2022-09-06T08:15:35.332Z,30.17
2022-09-06T08:18:02.339Z,29.92
2022-09-06T08:20:29.034Z,29.25
2022-09-06T08:22:55.698Z,28.92
2022-09-06T08:25:22.789Z,29.52
2022-09-06T08:27:49.446Z,29.77
2022-09-06T08:30:16.255Z,30.60
2022-09-06T08:32:42.991Z,27.60
2022-09-06T08:35:10.254Z,28.08
2022-09-06T08:37:36.990Z,30.27
2022-09-06T08:40:04.347Z,29.33
2022-09-06T08:42:31.631Z,29.15
2022-09-06T08:45:00.440Z,28.77
2022-09-06T08:47:27.830Z,29.60
2022-09-06T08:50:00.753Z,28.50
2022-09-06T08:53:06.566Z,29.00
2022-09-06T08:55:39.262Z,28.50
2022-09-06T08:58:15.357Z,28.35
2022-09-06T09:00:50.161Z,29.25
2022-09-06T09:05:51.489Z,30.75
2022-09-06T09:08:35.619Z,29.85
2022-09-06T09:11:10.224Z,30.27
2022-09-06T09:13:48.682Z,29.67
2022-09-06T09:16:16.380Z,31.02
2022-09-06T09:18:48.914Z,29.95
2022-09-06T09:21:20.291Z,29.48
2022-09-06T09:23:54.795Z,30.45
2022-09-06T09:26:24.079Z,30.35
2022-09-06T09:29:09.603Z,30.45
2022-09-06T09:31:56.500Z,30.30
2022-09-06T09:34:35.134Z,30.02
2022-09-06T09:40:02.605Z,30.23
2022-09-06T09:42:35.835Z,31.08
2022-09-06T09:45:21.131Z,30.63
2022-09-06T09:47:48.084Z,30.40
2022-09-06T09:50:33.379Z,32.00
2022-09-06T09:53:14.863Z,30.52
2022-09-06T09:55:42.821Z,29.70
2022-09-06T09:58:20.888Z,32.03
2022-09-06T10:00:47.632Z,30.40
2022-09-06T10:03:23.912Z,30.80
2022-09-06T10:06:02.769Z,30.52
2022-09-06T10:08:32.749Z,29.98
2022-09-06T10:10:59.489Z,32.05
2022-09-06T10:13:34.154Z,31.20
2022-09-06T10:16:02.930Z,31.25
2022-09-06T10:18:32.524Z,31.27
2022-09-06T10:21:19.861Z,31.38
2022-09-06T10:24:27.729Z,31.83
2022-09-06T10:27:02.339Z,32.10
2022-09-06T10:29:52.832Z,32.08
2022-09-06T10:32:41.738Z,31.92
2022-09-06T10:35:28.470Z,31.00
2022-09-06T10:38:35.600Z,31.35
2022-09-06T10:41:28.704Z,31.27
2022-09-06T10:44:17.020Z,31.30
2022-09-06T10:46:49.206Z,31.85
2022-09-06T10:49:19.518Z,30.48
2022-09-06T10:52:00.301Z,30.15
2022-09-06T10:54:30.700Z,30.27
2022-09-06T10:57:02.426Z,31.23
2022-09-06T11:02:27.021Z,31.80
2022-09-06T11:10:45.244Z,33.13
2022-09-06T11:13:17.013Z,31.75
2022-09-06T11:15:53.811Z,32.70
2022-09-06T11:18:32.697Z,32.72
2022-09-06T11:21:08.384Z,29.35
2022-09-06T11:24:02.496Z,28.40
2022-09-06T11:26:50.847Z,29.88
2022-09-06T11:29:19.811Z,29.48
2022-09-06T11:34:38.205Z,29.38
2022-09-06T11:37:07.682Z,27.88
2022-09-06T11:43:02.422Z,28.17
2022-09-06T11:45:55.408Z,28.92
2022-09-06T11:48:33.779Z,29.40
2022-09-06T11:51:06.920Z,29.60
2022-09-06T11:53:48.926Z,28.90
2022-09-06T11:56:30.833Z,29.17
2022-09-06T11:59:13.017Z,28.90
2022-09-06T12:01:40.965Z,28.40
2022-09-06T12:04:09.903Z,28.83
2022-09-06T12:07:10.701Z,29.77
2022-09-06T12:09:40.786Z,29.20
2022-09-06T12:12:11.451Z,29.52
2022-09-06T12:14:46.687Z,29.92
2022-09-06T12:17:13.325Z,29.25
2022-09-06T12:19:56.085Z,28.95
2022-09-06T12:22:40.151Z,29.30
2022-09-06T12:25:17.096Z,29.15
2022-09-06T12:27:54.219Z,28.83
2022-09-06T12:30:46.031Z,28.48
2022-09-06T12:33:48.405Z,29.58
2022-09-06T12:36:20.060Z,28.65
2022-09-06T12:39:25.612Z,27.95
2022-09-06T12:41:57.030Z,29.40
2022-09-06T12:44:38.690Z,29.73
2022-09-06T12:47:30.702Z,30.38
2022-09-06T12:50:25.752Z,28.88
2022-09-06T12:53:03.640Z,29.23
2022-09-06T12:55:33.002Z,29.50
2022-09-06T12:58:03.196Z,28.10
2022-09-06T13:00:37.565Z,29.25
2022-09-06T13:03:25.732Z,28.42
2022-09-06T13:05:54.773Z,28.90
2022-09-06T13:08:33.116Z,28.95
2022-09-06T13:11:00.335Z,29.23
2022-09-06T13:13:27.388Z,29.98
2022-09-06T13:15:55.858Z,29.20
2022-09-06T13:18:33.492Z,30.55
2022-09-06T13:21:03.019Z,28.88
2022-09-06T13:23:31.175Z,29.73
2022-09-06T13:25:57.887Z,29.48
2022-09-06T13:28:33.217Z,29.50
2022-09-06T13:31:17.959Z,30.63
2022-09-06T13:33:46.303Z,29.13
2022-09-06T13:36:26.509Z,26.63
2022-09-06T13:38:53.500Z,26.77
2022-09-06T13:41:26.058Z,30.13
2022-09-06T13:44:03.272Z,30.52
2022-09-06T13:46:32.155Z,28.40
2022-09-06T13:48:59.041Z,29.65
2022-09-06T13:51:29.157Z,29.13
2022-09-06T13:54:12.999Z,29.58
2022-09-06T13:56:41.516Z,28.88
2022-09-06T13:59:12.109Z,29.83
2022-09-06T14:01:41.513Z,29.63
2022-09-06T14:04:12.632Z,29.83
2022-09-06T14:06:40.314Z,29.00
2022-09-06T14:09:08.576Z,29.77
2022-09-06T14:11:36.452Z,28.13
2022-09-06T14:14:03.668Z,29.40
2022-09-06T14:16:30.489Z,28.33
2022-09-06T14:18:58.027Z,28.60
2022-09-06T14:21:24.883Z,29.08
2022-09-06T14:23:52.526Z,28.52
2022-09-06T14:26:21.191Z,28.30
2022-09-06T14:28:48.582Z,28.45
2022-09-06T14:31:21.542Z,28.27
2022-09-06T14:33:49.250Z,29.52
2022-09-06T14:36:18.649Z,29.17
2022-09-06T14:38:46.125Z,28.63
2022-09-06T14:41:14.432Z,28.10
2022-09-06T14:43:47.764Z,29.10
2022-09-06T14:46:15.262Z,28.02
2022-09-06T14:48:42.942Z,27.00
2022-09-06T14:51:20.730Z,28.60
2022-09-06T14:53:49.665Z,27.83
2022-09-06T14:56:16.533Z,27.60
2022-09-06T14:58:43.898Z,27.58
2022-09-06T15:01:19.839Z,28.38
2022-09-06T15:03:51.339Z,27.60
2022-09-06T15:06:20.870Z,29.17
2022-09-06T15:08:48.456Z,28.60
2022-09-06T15:11:27.579Z,28.60
2022-09-06T15:13:54.283Z,29.92
2022-09-06T15:16:21.270Z,28.27
2022-09-06T15:18:48.271Z,30.67
2022-09-06T15:21:17.383Z,29.33
2022-09-06T15:23:44.383Z,28.75
2022-09-06T15:26:13.507Z,27.15
2022-09-06T15:28:43.138Z,26.67
2022-09-06T15:31:10.970Z,27.88
2022-09-06T15:33:38.543Z,26.50
2022-09-06T15:36:07.258Z,27.40
2022-09-06T15:38:42.769Z,26.98
2022-09-06T15:41:12.472Z,27.30
2022-09-06T15:43:42.163Z,31.02
2022-09-06T15:46:09.925Z,29.50
2022-09-06T15:48:54.894Z,30.42
2022-09-06T15:51:22.181Z,30.58
2022-09-06T15:53:48.965Z,30.13
2022-09-06T15:56:17.121Z,31.17
2022-09-06T15:58:45.820Z,31.10
2022-09-06T16:01:18.074Z,29.92
2022-09-06T16:03:50.565Z,28.75
2022-09-06T16:06:27.506Z,27.90
2022-09-06T16:09:00.870Z,27.80
2022-09-06T16:11:29.174Z,28.10
2022-09-06T16:13:56.498Z,28.48
2022-09-06T16:16:23.620Z,27.92
2022-09-06T16:18:52.049Z,28.27
2022-09-06T16:21:24.267Z,28.67
2022-09-06T16:24:02.595Z,29.65
2022-09-06T16:26:33.135Z,29.92
2022-09-06T16:29:00.742Z,30.33
2022-09-06T16:31:28.858Z,30.02
2022-09-06T16:33:57.712Z,30.50
2022-09-06T16:36:25.614Z,30.92
2022-09-06T16:38:52.588Z,31.65
2022-09-06T16:41:26.722Z,28.17
2022-09-06T16:43:53.583Z,29.02
2022-09-06T16:46:22.265Z,30.35
2022-09-06T16:48:53.630Z,30.70
2022-09-06T16:51:21.969Z,30.60
2022-09-06T16:53:49.510Z,33.08
2022-09-06T16:56:21.927Z,30.35
2022-09-06T16:58:57.444Z,30.08
2022-09-06T17:01:25.581Z,29.83
2022-09-06T17:03:52.602Z,34.47
2022-09-06T17:06:20.296Z,27.05
2022-09-06T17:08:47.339Z,28.50
2022-09-06T17:11:18.334Z,27.70
2022-09-06T17:13:47.334Z,27.08
2022-09-06T17:16:33.399Z,25.63
2022-09-06T17:19:01.729Z,26.95
2022-09-06T17:21:29.243Z,27.02
2022-09-06T17:23:58.519Z,26.83
2022-09-06T17:26:25.241Z,27.10
2022-09-06T17:28:51.945Z,26.80
2022-09-06T17:31:24.964Z,26.85
2022-09-06T17:33:53.101Z,26.55
2022-09-06T17:36:23.391Z,26.40
2022-09-06T17:38:53.581Z,26.13
2022-09-06T17:41:27.816Z,26.95
2022-09-06T17:43:55.060Z,27.85
2022-09-06T17:46:27.920Z,27.42
2022-09-06T17:48:55.991Z,24.50
2022-09-06T17:51:23.866Z,24.52
2022-09-06T17:53:50.651Z,23.98
2022-09-06T17:56:18.476Z,25.15
2022-09-06T17:58:56.036Z,26.42
2022-09-06T18:01:24.275Z,24.30
2022-09-06T18:03:51.970Z,23.83
2022-09-06T18:06:22.649Z,24.42
2022-09-06T18:08:51.946Z,24.10
2022-09-06T18:11:26.484Z,24.00
2022-09-06T18:13:58.336Z,23.70
2022-09-06T18:16:25.669Z,24.38
2022-09-06T18:18:54.668Z,23.70
2022-09-06T18:21:22.417Z,25.38
2022-09-06T18:23:49.419Z,25.38
2022-09-06T18:26:16.922Z,29.90
2022-09-06T18:28:44.212Z,31.13
2022-09-06T18:31:13.970Z,27.30
2022-09-06T18:33:42.362Z,23.52
2022-09-06T18:36:11.604Z,23.25
2022-09-06T18:38:40.091Z,24.00
2022-09-06T18:41:08.614Z,25.58
2022-09-06T18:43:39.670Z,23.52
2022-09-06T18:46:08.304Z,23.05
2022-09-06T18:48:36.861Z,23.50
2022-09-06T18:51:16.176Z,24.50
2022-09-06T18:53:44.809Z,23.45
2022-09-06T18:56:13.328Z,22.85
2022-09-06T18:58:40.957Z,22.65
2022-09-06T19:01:08.833Z,22.95
2022-09-06T19:03:36.713Z,22.75
2022-09-06T19:06:11.787Z,22.67
2022-09-06T19:08:39.305Z,23.58
2022-09-06T19:11:09.102Z,23.13
2022-09-06T19:13:39.336Z,23.55
2022-09-06T19:16:07.600Z,22.75
2022-09-06T19:18:35.435Z,22.48
2022-09-06T19:21:05.240Z,22.27
2022-09-06T19:23:34.273Z,22.77
2022-09-06T19:26:07.573Z,21.80
2022-09-06T19:28:36.309Z,22.35
2022-09-06T19:31:13.428Z,22.88
2022-09-06T19:33:44.692Z,22.67
2022-09-06T19:36:12.565Z,23.27
2022-09-06T19:39:02.541Z,22.73
2022-09-06T19:41:29.823Z,23.08
2022-09-06T19:43:58.259Z,22.65
2022-09-06T19:46:25.720Z,22.98
2022-09-06T19:48:56.258Z,23.08
2022-09-06T19:51:24.052Z,23.20
2022-09-06T19:53:53.380Z,22.95
2022-09-06T19:56:31.518Z,22.58
2022-09-06T19:59:00.417Z,23.20
2022-09-06T20:01:29.812Z,23.17
2022-09-06T20:03:58.597Z,22.42
2022-09-06T20:06:26.671Z,22.67
2022-09-06T20:08:55.257Z,22.73
2022-09-06T20:11:24.773Z,22.55
2022-09-06T20:13:51.816Z,22.70
2022-09-06T20:16:20.719Z,23.42
2022-09-06T20:18:48.904Z,22.67
2022-09-06T20:21:18.257Z,23.25
2022-09-06T20:23:49.737Z,22.70
2022-09-06T20:26:17.394Z,22.77
2022-09-06T20:28:45.133Z,22.48
2022-09-06T20:31:18.056Z,22.75
2022-09-06T20:33:49.516Z,22.58
2022-09-06T20:36:17.549Z,22.83
2022-09-06T20:38:45.696Z,22.23
2022-09-06T20:41:23.968Z,22.58
2022-09-06T20:43:58.597Z,21.85
2022-09-06T20:46:27.860Z,21.90
2022-09-06T20:48:57.809Z,22.48
2022-09-06T20:51:25.128Z,22.05
2022-09-06T20:53:54.460Z,23.00
2022-09-06T20:56:26.573Z,22.65
2022-09-06T20:58:55.804Z,22.13
2022-09-06T21:01:25.091Z,22.17
2022-09-06T21:03:57.036Z,22.60
2022-09-06T21:06:26.008Z,22.10
2022-09-06T21:08:53.498Z,22.27
2022-09-06T21:11:20.887Z,21.85
2022-09-06T21:13:52.639Z,23.00
2022-09-06T21:16:24.196Z,22.92
2022-09-06T21:18:53.272Z,22.33
2022-09-06T21:21:20.511Z,22.13
2022-09-06T21:23:47.239Z,23.08
2022-09-06T21:26:17.928Z,23.33
2022-09-06T21:28:46.452Z,22.63
2022-09-06T21:31:24.671Z,23.30
2022-09-06T21:33:53.736Z,22.63
2022-09-06T21:36:23.965Z,23.88
2022-09-06T21:38:55.306Z,23.40
2022-09-06T21:41:23.158Z,23.25
2022-09-06T21:43:56.009Z,23.05
2022-09-06T21:46:27.784Z,23.40
2022-09-06T21:48:57.420Z,22.75
2022-09-06T21:51:29.051Z,22.92
2022-09-06T21:53:59.103Z,22.77
2022-09-06T21:56:26.420Z,22.73
2022-09-06T21:58:57.537Z,22.52
2022-09-06T22:01:29.405Z,22.23
2022-09-06T22:03:56.255Z,22.65
2022-09-06T22:06:28.753Z,23.15
2022-09-06T22:08:57.639Z,23.33
2022-09-06T22:11:32.657Z,22.50
2022-09-06T22:16:27.899Z,23.05
2022-09-06T22:18:55.113Z,23.10
2022-09-06T22:21:21.875Z,22.67
2022-09-06T22:24:15.479Z,22.30
2022-09-06T22:26:42.380Z,22.35
2022-09-06T22:29:11.194Z,23.90
2022-09-06T22:31:38.671Z,22.70
2022-09-06T22:34:06.362Z,23.33
2022-09-06T22:36:33.634Z,23.10
2022-09-06T22:39:00.798Z,23.25
2022-09-06T22:41:29.884Z,23.13
2022-09-06T22:43:59.409Z,22.88
2022-09-06T22:46:26.323Z,23.23
2022-09-06T22:48:53.134Z,23.52
2022-09-06T22:51:19.967Z,23.23
2022-09-06T22:53:46.723Z,23.30
2022-09-06T22:56:13.490Z,24.42
2022-09-06T22:58:40.567Z,24.30
2022-09-06T23:01:12.242Z,24.55
2022-09-06T23:03:39.932Z,23.35
2022-09-06T23:06:06.926Z,24.02
2022-09-06T23:08:35.526Z,23.60
2022-09-06T23:11:07.917Z,23.90
2022-09-06T23:13:35.129Z,23.67
2022-09-06T23:16:07.211Z,22.83
2022-09-06T23:18:34.622Z,23.77
2022-09-06T23:21:06.698Z,24.20
2022-09-06T23:23:34.270Z,22.55
2022-09-06T23:26:17.075Z,24.17
2022-09-06T23:28:44.080Z,23.13
2022-09-06T23:31:13.341Z,23.23
2022-09-06T23:33:41.711Z,23.40
2022-09-06T23:36:13.728Z,23.52
2022-09-06T23:38:41.874Z,24.02
2022-09-06T23:41:10.175Z,23.17
2022-09-06T23:43:38.111Z,23.05
2022-09-06T23:46:05.145Z,23.48
2022-09-06T23:48:32.239Z,23.88
2022-09-06T23:50:59.095Z,23.90
2022-09-06T23:53:25.847Z,23.70
2022-09-06T23:55:53.020Z,24.30
2022-09-06T23:58:19.777Z,24.20
